East Enosburg, Vermont
Current Conditions -  °F | °C
As of 5:15 AM on Wednesday 26 Nov 2014 (Local Time) from KFSO Reporting Station
Overcast Overcast  
Wind Chill: 35°   Ceiling: 3700
Heat Index: 35°   Visibility: 10mi
Dew Point: 23°   Wind: 3mph
Humidity: 62%   Direction: 250°WSW
Pressure: 30.23"   Gusts: NA
Location:  44.8764°N, 72.758°W
Report Text: KFSO 261015Z AUTO 25003KT 10SM OVC037 02/M05 A3023 RMK AO2 T00161049
Loading
Personal Weather Stations






























Interactive Weather Map New forecast layout! Learn more

10-Day Weather Forecast

Advertisements
Track Severe Weather on mobile